Time;durP1;ratioP1;P1;durP2;ratioP2;P2;SDS_P1;SDS_P2;PMS_P1;PMS_P2;Temp;Humidity;BMP_temperature;BMP_pressure;BME280_temperature;BME280_humidity;BME280_pressure;Samples;Min_cycle;Max_cycle;Signal;HPM_P1;HPM_P2
2021/12/27 00:00:51;;;;;;;1.37;1.27;;;0.70;99.90;;;;;;4954182;28;20274;-85
2021/12/27 00:03:17;;;;;;;2.00;1.90;;;0.70;99.90;;;;;;4970219;28;20220;-85
2021/12/27 00:05:42;;;;;;;1.93;1.83;;;0.80;99.90;;;;;;4969422;28;20200;-85
2021/12/27 00:08:08;;;;;;;3.07;2.30;;;0.80;99.90;;;;;;4969665;28;20220;-85
2021/12/27 00:10:34;;;;;;;0.77;0.77;;;0.80;99.90;;;;;;4968970;28;20823;-85
2021/12/27 00:13:02;;;;;;;0.80;0.80;;;0.80;99.90;;;;;;4985241;28;20239;-85
2021/12/27 00:15:28;;;;;;;1.47;1.00;;;0.90;99.90;;;;;;4969363;28;20262;-84
2021/12/27 00:17:54;;;;;;;1.63;1.53;;;0.80;99.90;;;;;;4985374;28;20285;-84
2021/12/27 00:20:20;;;;;;;1.50;0.90;;;0.90;99.90;;;;;;4986284;28;20698;-85
2021/12/27 00:22:47;;;;;;;2.63;2.40;;;0.90;99.90;;;;;;4984976;28;20223;-86
2021/12/27 00:25:14;;;;;;;1.30;1.30;;;0.90;99.90;;;;;;4968776;28;20212;-84
2021/12/27 00:27:40;;;;;;;2.60;2.00;;;0.90;99.90;;;;;;4968599;28;20231;-86
2021/12/27 00:30:08;;;;;;;0.80;0.80;;;0.90;99.90;;;;;;4958380;28;20709;-84
2021/12/27 00:32:36;;;;;;;1.43;1.00;;;0.90;99.90;;;;;;4974920;28;20193;-85
2021/12/27 00:35:04;;;;;;;2.17;1.53;;;0.90;99.90;;;;;;4990438;28;20893;-85
2021/12/27 00:37:29;;;;;;;2.07;1.97;;;0.90;99.90;;;;;;4975334;28;20223;-85
2021/12/27 00:39:55;;;;;;;0.87;0.87;;;0.80;99.90;;;;;;4959216;28;20213;-84
2021/12/27 00:42:21;;;;;;;1.13;1.10;;;0.80;99.90;;;;;;4959692;28;20219;-85
2021/12/27 00:44:47;;;;;;;4.27;3.47;;;0.80;99.90;;;;;;4975427;28;20184;-87
2021/12/27 00:47:13;;;;;;;0.70;0.70;;;0.80;99.90;;;;;;4975481;28;20259;-86
2021/12/27 00:49:39;;;;;;;1.23;1.00;;;0.80;99.90;;;;;;4959168;28;20227;-84
2021/12/27 00:52:05;;;;;;;3.23;2.93;;;0.90;99.90;;;;;;4973621;28;20213;-85
2021/12/27 00:54:31;;;;;;;0.90;0.87;;;0.90;99.90;;;;;;4975887;28;20223;-85
2021/12/27 00:56:56;;;;;;;2.43;2.23;;;0.90;99.90;;;;;;4959957;28;20834;-86
2021/12/27 00:59:22;;;;;;;3.87;2.97;;;0.90;99.90;;;;;;4960100;28;20628;-87
2021/12/27 01:01:48;;;;;;;1.60;1.37;;;0.90;99.90;;;;;;4960679;28;20216;-85
2021/12/27 01:04:14;;;;;;;4.97;2.47;;;0.90;99.90;;;;;;4962621;28;20208;-85
2021/12/27 01:06:40;;;;;;;2.10;1.27;;;0.90;99.90;;;;;;4967108;28;20270;-85
2021/12/27 01:09:06;;;;;;;0.83;0.83;;;0.90;99.90;;;;;;4972077;28;20204;-85
2021/12/27 01:14:11;;;;;;;3.33;3.10;;;0.90;99.90;;;;;;4973713;28;20239;-83
2021/12/27 01:16:39;;;;;;;1.90;1.80;;;0.90;99.90;;;;;;4972719;28;20224;-84
2021/12/27 01:19:06;;;;;;;0.40;0.40;;;0.90;99.90;;;;;;4971727;28;20244;-84
2021/12/27 01:21:32;;;;;;;0.57;0.57;;;0.90;99.90;;;;;;4972296;28;20333;-85
2021/12/27 01:23:58;;;;;;;1.53;1.37;;;0.90;99.90;;;;;;4972274;28;20342;-85
2021/12/27 01:26:25;;;;;;;0.63;0.63;;;0.90;99.90;;;;;;4972808;28;20279;-86
2021/12/27 01:28:53;;;;;;;1.47;1.37;;;1.00;99.90;;;;;;4988063;28;20235;-85
2021/12/27 01:31:19;;;;;;;1.53;1.23;;;1.00;99.90;;;;;;4988491;28;20712;-85
2021/12/27 01:33:46;;;;;;;1.57;1.47;;;1.00;99.90;;;;;;4972008;28;20274;-84
2021/12/27 01:36:13;;;;;;;3.83;2.77;;;1.00;99.90;;;;;;4972055;28;20295;-84
2021/12/27 01:38:40;;;;;;;1.73;1.63;;;1.00;99.90;;;;;;4988064;28;20783;-86
2021/12/27 01:41:08;;;;;;;1.03;1.03;;;1.00;99.90;;;;;;4972286;28;20180;-84
2021/12/27 01:43:36;;;;;;;0.80;0.80;;;1.00;99.90;;;;;;4987711;28;20241;-85
2021/12/27 01:46:10;;;;;;;1.70;1.33;;;1.10;99.90;;;;;;4987311;28;20234;-86
2021/12/27 01:48:39;;;;;;;1.00;1.00;;;1.10;99.90;;;;;;4987762;28;20215;-85
2021/12/27 01:51:13;;;;;;;1.80;1.20;;;1.10;99.90;;;;;;4987821;28;20302;-84
2021/12/27 01:53:41;;;;;;;1.30;1.30;;;1.10;99.90;;;;;;4987545;28;20183;-86
2021/12/27 01:56:09;;;;;;;0.83;0.83;;;1.10;99.90;;;;;;4989213;28;20585;-86
2021/12/27 01:58:35;;;;;;;3.70;1.23;;;1.10;99.90;;;;;;4987619;28;20302;-84
2021/12/27 02:01:03;;;;;;;2.07;1.90;;;1.10;99.90;;;;;;4987852;28;20704;-85
2021/12/27 02:03:30;;;;;;;0.73;0.73;;;1.10;99.90;;;;;;4988265;28;20212;-85
2021/12/27 02:05:57;;;;;;;0.57;0.57;;;1.10;99.90;;;;;;4972101;28;20583;-86
2021/12/27 02:08:23;;;;;;;6.03;1.87;;;1.10;99.90;;;;;;4970936;28;20188;-85
2021/12/27 02:10:49;;;;;;;1.67;1.57;;;1.10;99.90;;;;;;4987472;28;20297;-85
2021/12/27 02:13:16;;;;;;;1.37;1.27;;;1.00;99.90;;;;;;4970581;28;20697;-85
2021/12/27 02:15:42;;;;;;;4.83;3.13;;;1.00;99.90;;;;;;4987983;28;20223;-84
2021/12/27 02:18:11;;;;;;;1.33;1.33;;;1.00;99.90;;;;;;4970838;28;20223;-85
2021/12/27 02:20:39;;;;;;;0.77;0.70;;;1.00;99.90;;;;;;5003662;28;20203;-84
2021/12/27 02:23:14;;;;;;;0.40;0.40;;;1.00;99.90;;;;;;4988927;28;20656;-85
2021/12/27 02:25:40;;;;;;;1.00;1.00;;;1.10;99.90;;;;;;4987504;28;20203;-85
2021/12/27 02:28:08;;;;;;;3.37;3.17;;;1.00;99.90;;;;;;4970693;28;20223;-86
2021/12/27 02:30:35;;;;;;;0.77;0.77;;;1.10;99.90;;;;;;4987372;28;20720;-85
2021/12/27 02:33:05;;;;;;;1.93;1.80;;;1.10;99.90;;;;;;4968132;28;20213;-86
2021/12/27 02:35:46;;;;;;;1.77;1.67;;;1.10;99.90;;;;;;4968581;28;20276;-85
2021/12/27 02:38:32;;;;;;;1.50;1.43;;;1.10;99.90;;;;;;5003472;28;20216;-84
2021/12/27 02:40:59;;;;;;;2.57;2.47;;;1.00;99.90;;;;;;5003335;28;20655;-85
2021/12/27 02:43:26;;;;;;;2.07;1.97;;;1.00;99.90;;;;;;4988040;28;20772;-85
2021/12/27 02:45:58;;;;;;;1.97;1.87;;;1.00;99.90;;;;;;4986740;28;20215;-84
2021/12/27 02:48:28;;;;;;;1.90;1.80;;;1.00;99.90;;;;;;4986954;28;20576;-85
2021/12/27 02:50:55;;;;;;;3.43;2.40;;;0.90;99.90;;;;;;4987413;28;20286;-84
2021/12/27 02:53:23;;;;;;;2.47;1.17;;;0.90;99.90;;;;;;4986754;28;20183;-85
2021/12/27 02:55:51;;;;;;;6.30;1.70;;;0.90;99.90;;;;;;4970075;28;20246;-85
2021/12/27 02:58:17;;;;;;;0.70;0.70;;;0.90;99.90;;;;;;4987651;28;20726;-88
2021/12/27 03:00:56;;;;;;;1.63;1.57;;;0.80;99.90;;;;;;4970586;28;20302;-85
2021/12/27 03:03:22;;;;;;;1.43;1.33;;;0.90;99.90;;;;;;5002532;28;20223;-84
2021/12/27 03:05:48;;;;;;;0.67;0.67;;;0.80;99.90;;;;;;4970214;28;20254;-84
2021/12/27 03:08:15;;;;;;;0.50;0.50;;;0.90;99.90;;;;;;4971028;28;20680;-85
2021/12/27 03:10:44;;;;;;;2.73;2.53;;;0.90;99.90;;;;;;4987515;28;20274;-84
2021/12/27 03:13:23;;;;;;;2.53;2.17;;;0.80;99.90;;;;;;4987161;28;20212;-85
2021/12/27 03:16:01;;;;;;;1.13;1.13;;;0.80;99.90;;;;;;4987022;28;20207;-85
2021/12/27 03:18:27;;;;;;;2.07;1.83;;;0.90;99.90;;;;;;4986244;28;20334;-84
2021/12/27 03:20:54;;;;;;;1.70;1.60;;;0.80;99.90;;;;;;4986066;28;20184;-85
2021/12/27 03:23:20;;;;;;;1.53;1.47;;;0.90;99.90;;;;;;4970698;28;20676;-86
2021/12/27 03:25:46;;;;;;;0.57;0.57;;;0.90;99.90;;;;;;4969654;28;20703;-86
2021/12/27 03:28:13;;;;;;;3.03;1.07;;;0.90;99.90;;;;;;4969773;28;20216;-85
2021/12/27 03:30:39;;;;;;;2.50;2.40;;;0.90;99.90;;;;;;4953589;28;20250;-84
2021/12/27 03:33:08;;;;;;;2.40;2.30;;;0.90;99.90;;;;;;4986270;28;20240;-85
2021/12/27 03:35:36;;;;;;;1.93;1.83;;;1.00;99.90;;;;;;4985259;28;20283;-88
2021/12/27 03:38:07;;;;;;;2.10;2.00;;;1.00;99.90;;;;;;4986250;28;20215;-85
2021/12/27 03:40:33;;;;;;;4.33;1.83;;;1.00;99.90;;;;;;5002137;28;20215;-84
2021/12/27 03:42:59;;;;;;;2.57;2.30;;;1.00;99.90;;;;;;4969763;28;20212;-84
2021/12/27 03:45:29;;;;;;;2.43;2.07;;;1.00;99.90;;;;;;4985743;28;20327;-84
2021/12/27 03:47:56;;;;;;;1.80;1.70;;;1.00;99.90;;;;;;4985294;28;20270;-85
2021/12/27 03:50:24;;;;;;;2.73;2.40;;;1.00;99.90;;;;;;4986722;28;20215;-84
2021/12/27 03:52:56;;;;;;;1.83;1.73;;;1.00;99.90;;;;;;4985903;28;20298;-88
2021/12/27 03:55:23;;;;;;;2.80;2.53;;;1.10;99.90;;;;;;4986024;28;20566;-85
2021/12/27 03:57:54;;;;;;;4.40;2.80;;;1.10;99.90;;;;;;4986195;28;20220;-85
2021/12/27 04:00:46;;;;;;;2.83;2.63;;;1.10;99.90;;;;;;4970027;28;20627;-85
2021/12/27 04:03:13;;;;;;;0.67;0.67;;;1.10;99.90;;;;;;4985984;28;20212;-84
2021/12/27 04:05:38;;;;;;;3.13;1.43;;;1.10;99.90;;;;;;4985793;28;20291;-84
2021/12/27 04:08:09;;;;;;;2.27;2.13;;;1.10;99.90;;;;;;4954157;28;20302;-86
2021/12/27 04:10:41;;;;;;;2.33;2.13;;;1.20;99.90;;;;;;4970134;28;20234;-84
2021/12/27 04:13:09;;;;;;;3.77;3.33;;;1.20;99.90;;;;;;4984876;28;20215;-85
2021/12/27 04:15:35;;;;;;;1.87;1.77;;;1.20;99.90;;;;;;4985362;28;20220;-87
2021/12/27 04:18:02;;;;;;;1.10;1.10;;;1.20;99.90;;;;;;4985541;28;20728;-84
2021/12/27 04:20:28;;;;;;;3.37;2.73;;;1.30;99.90;;;;;;4986397;28;20669;-86
2021/12/27 04:22:53;;;;;;;1.03;1.03;;;1.30;99.90;;;;;;4986719;28;20220;-84
2021/12/27 04:25:20;;;;;;;2.30;1.83;;;1.30;99.90;;;;;;4985339;28;20215;-84
2021/12/27 04:27:48;;;;;;;3.37;3.07;;;1.30;99.90;;;;;;4985802;28;20227;-84
2021/12/27 04:30:15;;;;;;;5.37;4.50;;;1.30;99.90;;;;;;4985407;28;20227;-84
2021/12/27 04:32:41;;;;;;;3.13;2.93;;;1.40;99.90;;;;;;4985808;28;20613;-85
2021/12/27 04:35:09;;;;;;;2.83;2.60;;;1.40;99.90;;;;;;4985654;28;20180;-85
2021/12/27 04:37:35;;;;;;;4.43;1.30;;;1.40;99.90;;;;;;4987631;28;20222;-86
2021/12/27 04:40:05;;;;;;;2.63;2.53;;;1.40;99.90;;;;;;4988957;28;20203;-85
2021/12/27 04:42:31;;;;;;;2.53;2.27;;;1.40;99.90;;;;;;4989232;28;20243;-85
2021/12/27 04:44:58;;;;;;;1.70;1.57;;;1.40;99.90;;;;;;5005343;28;20303;-85
2021/12/27 04:47:25;;;;;;;2.30;2.20;;;1.40;99.90;;;;;;4973658;28;20214;-84
2021/12/27 04:49:51;;;;;;;4.50;3.07;;;1.40;99.90;;;;;;4972988;28;20219;-85
2021/12/27 04:52:17;;;;;;;4.93;1.97;;;1.40;99.90;;;;;;4988539;28;20603;-84
2021/12/27 04:54:43;;;;;;;3.60;2.77;;;1.40;99.90;;;;;;4973139;28;20651;-86
2021/12/27 04:57:09;;;;;;;4.43;4.03;;;1.40;99.90;;;;;;4972224;28;20204;-86
2021/12/27 04:59:37;;;;;;;2.77;2.53;;;1.30;99.90;;;;;;4972638;28;20574;-85
2021/12/27 05:02:03;;;;;;;1.27;1.20;;;1.30;99.90;;;;;;4973702;28;20211;-84
2021/12/27 05:04:30;;;;;;;2.03;1.93;;;1.20;99.90;;;;;;5004673;28;20215;-85
2021/12/27 05:06:55;;;;;;;1.80;1.70;;;1.20;99.90;;;;;;4988149;28;20230;-83
2021/12/27 05:09:21;;;;;;;2.33;2.17;;;1.10;99.90;;;;;;4956505;28;20223;-84
2021/12/27 05:11:54;;;;;;;1.10;1.10;;;1.20;99.90;;;;;;4973756;28;20239;-85
2021/12/27 05:14:20;;;;;;;0.70;0.70;;;1.10;99.90;;;;;;4972792;28;20184;-84
2021/12/27 05:16:47;;;;;;;3.83;3.40;;;1.10;99.90;;;;;;4972030;28;20727;-84
2021/12/27 05:19:14;;;;;;;4.30;4.00;;;1.10;99.90;;;;;;4972562;28;20215;-85
2021/12/27 05:21:40;;;;;;;1.17;1.17;;;1.10;99.90;;;;;;4987934;28;20262;-84
2021/12/27 05:24:07;;;;;;;5.73;2.40;;;1.10;99.90;;;;;;4956717;28;20215;-84
2021/12/27 05:26:33;;;;;;;2.67;2.53;;;1.10;99.90;;;;;;4988940;28;20184;-85
2021/12/27 05:28:59;;;;;;;1.37;1.17;;;1.10;99.90;;;;;;4962968;28;20220;-85
2021/12/27 05:31:25;;;;;;;3.23;1.67;;;1.20;99.90;;;;;;4955832;28;20242;-84
2021/12/27 05:33:51;;;;;;;2.97;2.77;;;1.10;99.90;;;;;;4989566;28;20342;-84
2021/12/27 05:36:17;;;;;;;2.57;2.37;;;1.20;99.90;;;;;;4971787;28;20259;-84
2021/12/27 05:38:43;;;;;;;2.13;1.97;;;1.20;99.90;;;;;;4988161;28;20215;-84
2021/12/27 05:41:09;;;;;;;3.43;2.93;;;1.20;99.90;;;;;;4955670;28;20220;-87
2021/12/27 05:43:34;;;;;;;1.53;1.43;;;1.20;99.90;;;;;;4972447;28;20428;-84
2021/12/27 05:46:02;;;;;;;2.93;1.87;;;1.20;99.90;;;;;;4956192;28;20212;-84
2021/12/27 05:48:28;;;;;;;1.50;1.37;;;1.20;99.90;;;;;;4986527;28;20786;-84
2021/12/27 05:50:53;;;;;;;2.63;2.50;;;1.30;99.90;;;;;;4971704;28;20262;-84
2021/12/27 05:53:20;;;;;;;1.10;1.10;;;1.20;99.90;;;;;;4989665;28;20301;-85
2021/12/27 05:55:46;;;;;;;2.20;2.10;;;1.30;99.90;;;;;;4956160;28;20383;-85
2021/12/27 05:58:11;;;;;;;1.27;1.27;;;1.30;99.90;;;;;;4971918;28;20252;-85
2021/12/27 06:00:38;;;;;;;3.60;2.00;;;1.30;99.90;;;;;;4955719;28;20262;-84
2021/12/27 06:03:04;;;;;;;2.30;2.20;;;1.30;99.90;;;;;;4971334;28;20220;-85
2021/12/27 06:05:30;;;;;;;4.00;3.50;;;1.30;99.90;;;;;;4988057;28;20647;-84
2021/12/27 06:07:56;;;;;;;2.37;2.27;;;1.30;99.90;;;;;;4971591;28;20215;-88
2021/12/27 06:10:22;;;;;;;2.97;2.77;;;1.40;99.90;;;;;;4954836;28;20220;-84
2021/12/27 06:12:48;;;;;;;4.67;3.27;;;1.40;99.90;;;;;;4970922;28;20227;-85
2021/12/27 06:15:15;;;;;;;7.47;3.53;;;1.30;99.90;;;;;;4971419;28;20216;-84
2021/12/27 06:17:42;;;;;;;2.43;2.00;;;1.30;99.90;;;;;;4986737;28;20263;-84
2021/12/27 06:20:14;;;;;;;2.33;2.23;;;1.40;99.90;;;;;;4988289;28;20192;-84
2021/12/27 06:22:47;;;;;;;4.80;2.53;;;1.40;99.90;;;;;;4987175;28;20223;-84
2021/12/27 06:25:13;;;;;;;3.50;2.83;;;1.40;99.90;;;;;;5003418;28;20219;-84
2021/12/27 06:27:39;;;;;;;1.80;1.70;;;1.40;99.90;;;;;;4987291;28;20632;-84
2021/12/27 06:30:07;;;;;;;3.03;2.63;;;1.40;99.90;;;;;;4987705;28;20242;-87
2021/12/27 06:32:35;;;;;;;0.73;0.73;;;1.40;99.90;;;;;;4987616;28;20204;-87
2021/12/27 06:35:01;;;;;;;6.93;3.33;;;1.40;99.90;;;;;;4989077;28;20239;-87
2021/12/27 06:37:27;;;;;;;2.83;1.93;;;1.40;99.90;;;;;;4972666;28;20755;-87
2021/12/27 06:39:56;;;;;;;2.00;1.90;;;1.40;99.90;;;;;;4987517;28;20235;-84
2021/12/27 06:42:22;;;;;;;4.07;3.67;;;1.40;99.90;;;;;;4970725;28;20243;-84
2021/12/27 06:44:48;;;;;;;2.13;2.03;;;1.40;99.90;;;;;;4970011;28;20283;-84
2021/12/27 06:47:14;;;;;;;6.53;2.47;;;1.40;99.90;;;;;;4986250;28;20278;-83
2021/12/27 06:49:42;;;;;;;3.80;2.13;;;1.50;99.90;;;;;;5002667;28;20212;-85
2021/12/27 06:52:09;;;;;;;2.20;2.10;;;1.50;99.90;;;;;;4954263;28;20724;-84
2021/12/27 06:54:34;;;;;;;5.60;4.33;;;1.50;99.90;;;;;;4987312;28;20221;-85
2021/12/27 06:57:00;;;;;;;4.30;3.90;;;1.40;99.90;;;;;;4986672;28;20212;-84
2021/12/27 06:59:28;;;;;;;5.17;2.23;;;1.50;99.90;;;;;;4970794;28;20195;-83
2021/12/27 07:01:54;;;;;;;3.37;1.67;;;1.50;99.90;;;;;;4986954;28;20227;-85
2021/12/27 07:04:19;;;;;;;4.67;4.27;;;1.50;99.90;;;;;;4969903;28;20286;-85
2021/12/27 07:06:45;;;;;;;2.93;2.43;;;1.50;99.90;;;;;;4953779;28;20231;-84
2021/12/27 07:09:11;;;;;;;7.27;4.10;;;1.60;99.90;;;;;;4970357;28;20216;-87
2021/12/27 07:11:37;;;;;;;2.57;2.03;;;1.60;99.90;;;;;;4954695;28;20258;-86
2021/12/27 07:14:04;;;;;;;3.80;2.40;;;1.60;99.90;;;;;;4987671;28;20192;-86
2021/12/27 07:16:30;;;;;;;1.43;1.33;;;1.60;99.90;;;;;;4987366;28;20212;-86
2021/12/27 07:18:56;;;;;;;2.20;2.00;;;1.60;99.90;;;;;;4985814;28;20215;-86
2021/12/27 07:21:22;;;;;;;3.87;3.67;;;1.60;99.90;;;;;;4985814;28;20290;-84
2021/12/27 07:23:48;;;;;;;0.43;0.43;;;1.60;99.90;;;;;;4986132;28;20212;-86
2021/12/27 07:26:14;;;;;;;3.30;2.97;;;1.60;99.90;;;;;;4986447;28;20199;-87
2021/12/27 07:28:40;;;;;;;3.27;2.13;;;1.60;99.90;;;;;;4969842;28;20212;-86
2021/12/27 07:31:07;;;;;;;1.23;1.23;;;1.60;99.90;;;;;;4986260;28;20700;-85
2021/12/27 07:33:33;;;;;;;4.87;3.00;;;1.60;99.90;;;;;;4970128;28;20306;-85
2021/12/27 07:35:59;;;;;;;5.70;2.00;;;1.70;99.90;;;;;;4985935;28;20303;-88
2021/12/27 07:38:25;;;;;;;3.70;3.27;;;1.70;99.90;;;;;;4987045;28;20192;-85
2021/12/27 07:40:51;;;;;;;1.30;1.30;;;1.70;99.90;;;;;;4986211;28;20218;-86
2021/12/27 07:43:17;;;;;;;1.20;1.20;;;1.70;99.90;;;;;;4986268;28;20242;-86
2021/12/27 07:45:42;;;;;;;3.77;2.67;;;1.70;99.90;;;;;;4971068;28;20692;-85
2021/12/27 07:48:10;;;;;;;4.07;3.67;;;1.70;99.90;;;;;;5006110;28;20214;-88
2021/12/27 07:50:37;;;;;;;1.93;1.83;;;1.70;99.90;;;;;;4975370;28;20367;-86
2021/12/27 07:53:04;;;;;;;2.77;2.40;;;1.70;99.90;;;;;;4971652;28;20192;-88
2021/12/27 07:55:30;;;;;;;2.93;2.70;;;1.70;99.90;;;;;;4973530;28;20230;-90
2021/12/27 07:57:57;;;;;;;9.87;2.00;;;1.70;99.90;;;;;;4988201;28;20220;-88
2021/12/27 08:00:24;;;;;;;6.33;5.13;;;1.70;99.90;;;;;;4955470;28;20266;-87
2021/12/27 08:02:50;;;;;;;1.73;1.63;;;1.80;99.90;;;;;;4972336;28;20284;-85
2021/12/27 08:05:18;;;;;;;3.80;2.93;;;1.80;99.90;;;;;;4969463;28;20197;-87
2021/12/27 08:07:44;;;;;;;7.60;3.17;;;1.80;99.90;;;;;;4971438;28;20220;-87
2021/12/27 08:10:11;;;;;;;9.23;5.40;;;1.80;99.90;;;;;;4988131;28;20303;-87
2021/12/27 08:12:38;;;;;;;4.10;3.53;;;1.90;99.90;;;;;;4956035;28;20219;-86
2021/12/27 08:15:06;;;;;;;4.37;3.37;;;1.90;99.90;;;;;;4975457;28;20220;-87
2021/12/27 08:17:33;;;;;;;6.50;5.00;;;1.90;99.90;;;;;;4974203;28;20243;-85
2021/12/27 08:19:59;;;;;;;3.13;2.93;;;1.90;99.90;;;;;;4974212;28;20208;-85
2021/12/27 08:22:25;;;;;;;1.60;1.50;;;1.90;99.90;;;;;;4974043;28;20226;-85
2021/12/27 08:24:51;;;;;;;1.77;1.67;;;1.90;99.90;;;;;;4958030;28;20216;-85
2021/12/27 08:27:19;;;;;;;2.90;2.67;;;1.90;99.90;;;;;;4990831;28;20227;-87
2021/12/27 08:29:46;;;;;;;4.27;3.90;;;1.90;99.90;;;;;;4993909;28;20227;-86
2021/12/27 08:32:13;;;;;;;7.63;4.07;;;2.00;99.90;;;;;;4976747;28;20191;-86
2021/12/27 08:34:38;;;;;;;8.77;3.70;;;1.90;99.90;;;;;;4992329;28;20240;-87
2021/12/27 08:37:05;;;;;;;5.33;4.83;;;2.00;99.90;;;;;;4973861;28;20643;-86
2021/12/27 08:39:31;;;;;;;4.80;3.47;;;2.00;99.90;;;;;;4972877;28;20231;-87
2021/12/27 08:41:57;;;;;;;5.47;5.03;;;2.00;99.90;;;;;;4957626;28;20219;-87
2021/12/27 08:44:23;;;;;;;5.33;4.60;;;2.00;99.90;;;;;;4973419;28;20246;-87
2021/12/27 08:46:49;;;;;;;5.60;5.07;;;2.10;99.90;;;;;;4989957;28;20223;-87
2021/12/27 08:49:18;;;;;;;3.87;3.17;;;2.00;99.90;;;;;;4981508;28;20588;-87
2021/12/27 08:51:45;;;;;;;2.40;2.23;;;2.10;99.90;;;;;;4973584;28;20215;-87
2021/12/27 08:54:10;;;;;;;3.80;3.50;;;2.10;99.90;;;;;;4989519;28;20811;-84
2021/12/27 08:56:38;;;;;;;3.33;3.10;;;2.10;99.90;;;;;;4972840;28;20226;-86
2021/12/27 08:59:05;;;;;;;4.77;4.27;;;2.10;99.90;;;;;;4974624;28;20192;-86
2021/12/27 09:01:31;;;;;;;4.97;3.70;;;2.10;99.90;;;;;;4973406;28;20211;-86
2021/12/27 09:03:57;;;;;;;2.57;2.37;;;2.10;99.90;;;;;;4989588;28;20219;-85
2021/12/27 09:06:23;;;;;;;4.73;4.37;;;2.10;99.90;;;;;;4988694;28;20216;-85
2021/12/27 09:08:49;;;;;;;9.10;5.93;;;2.10;99.90;;;;;;4956655;28;20768;-85
2021/12/27 09:11:15;;;;;;;5.10;4.33;;;2.20;99.90;;;;;;4989670;28;20211;-86
2021/12/27 09:13:41;;;;;;;7.17;5.53;;;2.20;99.90;;;;;;4989736;28;20204;-90
2021/12/27 09:16:09;;;;;;;7.67;3.20;;;2.20;99.90;;;;;;4989329;28;20215;-85
2021/12/27 09:18:36;;;;;;;8.77;3.50;;;2.20;99.90;;;;;;4988873;28;20243;-86
2021/12/27 09:21:02;;;;;;;3.17;2.93;;;2.30;99.90;;;;;;4956766;28;20212;-86
2021/12/27 09:23:28;;;;;;;7.40;4.70;;;2.30;99.90;;;;;;4972827;28;20652;-84
2021/12/27 09:25:54;;;;;;;5.67;5.17;;;2.40;99.90;;;;;;4971849;28;20273;-85
2021/12/27 09:28:20;;;;;;;11.83;6.10;;;2.40;99.90;;;;;;4972445;28;20303;-87
2021/12/27 09:30:46;;;;;;;4.23;3.70;;;2.40;99.90;;;;;;4956402;28;20219;-87
2021/12/27 09:33:12;;;;;;;10.00;4.20;;;2.40;99.90;;;;;;4972335;28;20223;-87
2021/12/27 09:35:38;;;;;;;3.77;3.10;;;2.40;99.90;;;;;;4971925;28;20219;-86
2021/12/27 09:38:05;;;;;;;7.07;5.57;;;2.50;99.90;;;;;;4972640;28;20183;-87
2021/12/27 09:40:31;;;;;;;4.80;4.40;;;2.40;99.90;;;;;;4988095;28;20212;-86
2021/12/27 09:42:58;;;;;;;7.70;3.83;;;2.50;99.90;;;;;;4972530;28;20223;-87
2021/12/27 09:45:24;;;;;;;3.70;3.10;;;2.50;99.90;;;;;;4971798;28;20869;-84
2021/12/27 09:47:51;;;;;;;6.33;5.70;;;2.50;99.90;;;;;;4972491;28;20275;-87
2021/12/27 09:50:32;;;;;;;7.83;4.17;;;2.50;99.90;;;;;;4956999;28;20794;-87
2021/12/27 09:52:58;;;;;;;7.50;4.57;;;2.50;99.90;;;;;;4989686;28;20223;-86
2021/12/27 09:55:23;;;;;;;3.30;3.03;;;2.60;99.90;;;;;;4971807;28;20442;-88
2021/12/27 09:57:49;;;;;;;12.87;4.80;;;2.60;99.90;;;;;;4972255;28;20212;-87
2021/12/27 10:00:17;;;;;;;17.30;4.17;;;2.60;99.90;;;;;;4988200;28;20263;-86
2021/12/27 10:02:43;;;;;;;7.77;3.93;;;2.60;99.90;;;;;;4971578;28;20192;-89
2021/12/27 10:05:09;;;;;;;4.37;3.90;;;2.60;99.90;;;;;;4972783;28;20188;-87
2021/12/27 10:07:41;;;;;;;7.53;4.73;;;2.60;99.90;;;;;;4971735;28;20219;-86
2021/12/27 10:10:08;;;;;;;2.03;2.00;;;2.70;99.90;;;;;;4987579;28;20377;-86
2021/12/27 10:12:34;;;;;;;4.50;4.17;;;2.70;99.90;;;;;;4971426;28;20235;-86
2021/12/27 10:15:02;;;;;;;5.60;4.77;;;2.80;99.90;;;;;;4987927;28;20313;-87
2021/12/27 10:17:34;;;;;;;8.87;5.40;;;2.80;99.90;;;;;;4988375;28;20952;-88
2021/12/27 10:20:18;;;;;;;2.60;2.50;;;2.80;99.90;;;;;;4971733;28;20737;-86
2021/12/27 10:22:55;;;;;;;5.87;3.03;;;2.90;99.90;;;;;;4986600;28;20215;-89
2021/12/27 10:25:27;;;;;;;2.20;2.10;;;2.90;99.90;;;;;;5003961;28;20226;-88
2021/12/27 10:27:56;;;;;;;3.30;3.00;;;2.90;99.90;;;;;;4987382;28;20262;-87
2021/12/27 10:30:24;;;;;;;7.77;4.00;;;3.00;99.90;;;;;;4987180;28;20319;-86
2021/12/27 10:33:09;;;;;;;4.17;3.27;;;3.00;99.90;;;;;;4988190;28;20585;-88
2021/12/27 10:35:44;;;;;;;8.37;6.00;;;3.00;99.90;;;;;;5003058;28;20184;-87
2021/12/27 10:38:31;;;;;;;4.57;4.20;;;3.10;99.90;;;;;;5004316;28;20179;-86
2021/12/27 10:41:04;;;;;;;4.10;3.67;;;3.10;99.90;;;;;;4987234;28;20216;-86
2021/12/27 10:43:38;;;;;;;4.00;2.30;;;3.10;99.90;;;;;;4972128;28;20259;-86
2021/12/27 10:46:07;;;;;;;1.60;1.50;;;3.20;99.90;;;;;;4984937;28;20822;-88
2021/12/27 10:48:47;;;;;;;4.07;3.67;;;3.20;99.90;;;;;;4987206;28;20294;-87
2021/12/27 10:51:14;;;;;;;3.13;3.00;;;3.20;99.90;;;;;;4986847;28;20717;-89
2021/12/27 10:53:42;;;;;;;3.80;3.20;;;3.30;99.90;;;;;;4987099;28;20204;-88
2021/12/27 10:56:08;;;;;;;3.07;2.83;;;3.30;99.90;;;;;;5004324;28;20184;-88
2021/12/27 10:58:38;;;;;;;1.70;1.60;;;3.30;99.90;;;;;;4970777;28;20217;-87
2021/12/27 11:01:12;;;;;;;2.90;2.00;;;3.30;99.90;;;;;;4955778;28;20216;-87
2021/12/27 11:03:42;;;;;;;0.60;0.60;;;3.40;99.90;;;;;;5002377;28;20216;-87
2021/12/27 11:06:12;;;;;;;1.90;1.80;;;3.40;99.90;;;;;;4987187;28;20760;-87
2021/12/27 11:08:42;;;;;;;2.87;1.80;;;3.30;99.90;;;;;;5002738;28;20570;-88
2021/12/27 11:11:08;;;;;;;1.23;1.23;;;3.30;99.90;;;;;;4987790;28;20669;-87
2021/12/27 11:13:35;;;;;;;5.10;3.10;;;3.40;99.90;;;;;;4986521;28;20296;-86
2021/12/27 11:16:02;;;;;;;4.47;3.57;;;3.30;99.90;;;;;;4969976;28;20242;-88
2021/12/27 11:18:28;;;;;;;7.10;3.33;;;3.30;99.90;;;;;;4986526;28;20224;-86
2021/12/27 11:20:56;;;;;;;2.07;1.97;;;3.30;99.90;;;;;;4986744;28;20267;-86
2021/12/27 11:23:24;;;;;;;3.67;2.83;;;3.30;99.90;;;;;;4970800;28;20192;-85
2021/12/27 11:26:22;;;;;;;2.27;1.50;;;3.40;99.90;;;;;;4969795;28;20355;-86
2021/12/27 11:28:49;;;;;;;1.87;1.77;;;3.30;99.90;;;;;;4986779;28;20315;-85
2021/12/27 11:31:23;;;;;;;2.07;1.87;;;3.40;99.90;;;;;;4970436;28;20220;-85
2021/12/27 11:34:03;;;;;;;11.10;3.40;;;3.40;99.90;;;;;;5002467;28;20224;-87
2021/12/27 11:36:35;;;;;;;3.47;3.23;;;3.50;99.90;;;;;;5002088;28;20224;-88
2021/12/27 11:39:19;;;;;;;2.63;2.50;;;3.60;99.90;;;;;;4986113;28;20219;-86
2021/12/27 11:42:02;;;;;;;5.00;4.63;;;3.60;99.90;;;;;;4986140;28;20207;-87
2021/12/27 11:44:45;;;;;;;4.87;4.47;;;3.70;99.90;;;;;;4985473;28;20207;-86
2021/12/27 11:47:21;;;;;;;6.63;3.73;;;3.70;99.90;;;;;;4986941;28;20334;-88
2021/12/27 11:49:53;;;;;;;3.57;3.23;;;3.80;99.90;;;;;;4985748;28;20215;-86
2021/12/27 11:52:27;;;;;;;1.93;1.83;;;3.80;99.90;;;;;;4986857;28;20223;-87
2021/12/27 11:54:55;;;;;;;8.90;4.27;;;3.80;99.90;;;;;;4985809;28;20262;-87
2021/12/27 11:57:39;;;;;;;3.83;3.23;;;3.90;99.90;;;;;;4985900;28;20219;-86
2021/12/27 12:00:20;;;;;;;6.77;1.93;;;3.90;99.90;;;;;;4987330;28;20243;-86
2021/12/27 12:02:47;;;;;;;4.20;2.83;;;3.70;99.90;;;;;;5001945;28;20222;-86
2021/12/27 12:05:36;;;;;;;5.13;3.17;;;3.80;99.90;;;;;;4987082;28;20648;-87
2021/12/27 12:08:03;;;;;;;4.93;3.53;;;4.00;99.90;;;;;;4985723;28;20841;-85
2021/12/27 12:10:30;;;;;;;6.40;3.77;;;3.90;99.90;;;;;;4985511;28;20216;-87
2021/12/27 12:13:24;;;;;;;6.30;5.80;;;3.90;99.90;;;;;;4987106;28;20208;-87
2021/12/27 12:16:14;;;;;;;6.10;3.93;;;3.90;99.90;;;;;;4984805;28;20215;-85
2021/12/27 12:19:00;;;;;;;0.90;0.90;;;3.90;99.90;;;;;;4984466;28;20227;-87
2021/12/27 12:21:52;;;;;;;4.73;2.53;;;3.90;99.90;;;;;;4984150;28;20219;-85
2021/12/27 12:24:22;;;;;;;7.60;4.03;;;4.00;99.90;;;;;;4962495;28;20236;-85
2021/12/27 12:27:09;;;;;;;4.40;4.00;;;4.00;99.90;;;;;;4967883;28;21231;-85
2021/12/27 12:29:40;;;;;;;4.13;3.63;;;3.90;99.90;;;;;;4985553;28;20746;-85
2021/12/27 12:32:09;;;;;;;4.57;3.10;;;4.00;99.90;;;;;;4985306;28;20211;-85
2021/12/27 12:34:36;;;;;;;4.17;3.80;;;4.00;99.90;;;;;;4984127;28;20220;-86
2021/12/27 12:37:10;;;;;;;1.70;1.53;;;4.00;99.90;;;;;;4985211;28;20211;-86
2021/12/27 12:39:43;;;;;;;4.87;4.40;;;4.00;99.90;;;;;;4985203;28;20206;-85
2021/12/27 12:42:17;;;;;;;3.37;2.43;;;4.10;99.90;;;;;;4984962;28;20240;-86
2021/12/27 12:44:59;;;;;;;1.80;1.70;;;4.10;99.90;;;;;;4984852;28;20191;-85
2021/12/27 12:47:26;;;;;;;3.00;2.87;;;4.00;99.90;;;;;;4985545;28;20192;-85
2021/12/27 12:49:52;;;;;;;4.57;3.20;;;4.00;99.90;;;;;;4984166;28;20215;-85
2021/12/27 12:52:19;;;;;;;2.70;2.50;;;4.00;99.90;;;;;;4969241;28;20701;-85
2021/12/27 12:54:45;;;;;;;3.10;2.23;;;4.10;99.90;;;;;;4969073;28;20212;-85
2021/12/27 12:57:16;;;;;;;2.77;2.63;;;4.10;99.90;;;;;;4969898;28;20299;-85
2021/12/27 12:59:43;;;;;;;4.47;3.60;;;4.20;99.90;;;;;;4988540;28;20255;-86
2021/12/27 13:02:15;;;;;;;6.83;3.40;;;4.20;99.90;;;;;;4989210;28;20211;-86
2021/12/27 13:04:50;;;;;;;2.23;2.07;;;4.30;99.90;;;;;;4988059;28;20277;-87
2021/12/27 13:07:49;;;;;;;8.80;4.03;;;4.20;99.90;;;;;;4988551;28;20358;-85